KBFL/BFL METAR and TAF weather

Enter ICAO airport designator
Station Type Date Time Source
KBFL METAR 2020/12/05 23:54 UTC NOAA

KBFL 052354Z 19004KT 9SM CLR 20/M06 A3019 RMK AO2 SLP221 T02001061 10211 20133 56009


Station Type Date Time Source
KBFL Decoded METAR 2020/12/05 23:54 UTC NOAA

BAKERSFIELD MEADOWS FIELD, CA, United States (KBFL) 35-26N 119-03W 151M
Dec 05, 2020 - 06:54 PM EST / 2020.12.05 2354 UTC
Wind: from the S (190 degrees) at 5 MPH (4 KT):0
Visibility: 9 mile(s):0
Sky conditions: clear
Temperature: 68.0 F (20.0 C)
Dew Point: 21.0 F (-6.1 C)
Relative Humidity: 16%
Pressure (altimeter): 30.19 in. Hg (1022 hPa)
Pressure tendency: 0.03 inches (0.9 hPa) lower than three hours ago
ob: KBFL 052354Z 19004KT 9SM CLR 20/M06 A3019 RMK AO2 SLP221 T02001061 10211 20133 56009
cycle: 0

Station Type Date Time Source
KBFL TAF 2020/12/05 18:30 UTC NOAA

TAF KBFL 051728Z 0518/0618 VRB04KT P6SM FEW200

Example: see airport list